createdAt,value
2022-12-13T00:01:55.857Z,60.19
2022-12-13T00:04:25.707Z,60.21
2022-12-13T00:06:54.907Z,60.34
2022-12-13T00:09:24.481Z,60.12
2022-12-13T00:11:54.703Z,60.19
2022-12-13T00:14:23.018Z,60.21
2022-12-13T00:16:51.709Z,60.66
2022-12-13T00:19:21.325Z,60.41
2022-12-13T00:21:49.495Z,60.46
2022-12-13T00:24:18.083Z,60.50
2022-12-13T00:26:46.908Z,60.15
2022-12-13T00:29:15.400Z,60.20
2022-12-13T00:31:58.666Z,59.93
2022-12-13T00:34:29.341Z,59.93
2022-12-13T00:43:29.649Z,59.51
2022-12-13T00:46:55.277Z,59.55
2022-12-13T00:53:18.539Z,59.75
2022-12-13T00:55:48.118Z,60.03
2022-12-13T00:58:17.066Z,59.97
2022-12-13T01:00:46.495Z,59.91
2022-12-13T01:03:25.333Z,59.80
2022-12-13T01:08:46.452Z,59.70
2022-12-13T01:16:07.833Z,59.57
2022-12-13T01:19:10.238Z,59.40
2022-12-13T01:22:19.694Z,59.46
2022-12-13T01:25:04.666Z,59.98
2022-12-13T01:31:28.772Z,59.65
2022-12-13T01:34:45.571Z,59.65
2022-12-13T01:37:32.189Z,59.94
2022-12-13T01:40:08.909Z,59.69
2022-12-13T01:42:45.039Z,59.77
2022-12-13T01:45:24.594Z,60.26
2022-12-13T01:47:58.511Z,60.44
2022-12-13T01:50:32.936Z,60.40
2022-12-13T01:53:02.035Z,60.25
2022-12-13T01:55:41.494Z,60.37
2022-12-13T01:58:11.351Z,60.23
2022-12-13T02:00:41.006Z,60.20
2022-12-13T02:03:21.792Z,60.27
2022-12-13T02:05:57.299Z,60.30
2022-12-13T02:08:30.003Z,60.27
2022-12-13T02:10:59.913Z,60.27
2022-12-13T02:13:28.435Z,60.26
2022-12-13T02:16:06.521Z,60.19
2022-12-13T02:18:52.462Z,60.13
2022-12-13T02:21:27.923Z,59.97
2022-12-13T02:24:20.246Z,59.71
2022-12-13T02:27:08.521Z,59.56
2022-12-13T02:30:03.885Z,59.49
2022-12-13T02:32:40.688Z,59.37
2022-12-13T02:35:13.441Z,59.20
2022-12-13T02:37:52.553Z,59.15
2022-12-13T02:40:27.641Z,59.44
2022-12-13T02:43:02.280Z,59.46
2022-12-13T02:45:35.726Z,59.37
2022-12-13T02:48:09.422Z,59.29
2022-12-13T02:50:40.179Z,59.31
2022-12-13T02:53:10.693Z,58.98
2022-12-13T02:55:40.928Z,59.23
2022-12-13T02:58:14.015Z,59.25
2022-12-13T03:00:55.121Z,59.37
2022-12-13T03:03:38.263Z,59.28
2022-12-13T03:06:34.754Z,59.28
2022-12-13T03:09:21.166Z,59.25
2022-12-13T03:12:32.647Z,59.14
2022-12-13T03:15:23.411Z,58.99
2022-12-13T03:17:59.248Z,59.01
2022-12-13T03:20:33.010Z,59.06
2022-12-13T03:23:01.791Z,59.21
2022-12-13T03:26:17.402Z,59.08
2022-12-13T03:29:23.284Z,59.18
2022-12-13T03:34:44.597Z,59.45
2022-12-13T03:45:45.179Z,59.68
2022-12-13T03:48:22.377Z,59.68
2022-12-13T04:37:54.713Z,59.14
2022-12-13T04:40:25.237Z,58.70
2022-12-13T04:42:54.689Z,58.83
2022-12-13T04:45:23.979Z,58.98
2022-12-13T04:47:52.458Z,58.95
2022-12-13T04:50:21.138Z,58.87
2022-12-13T04:52:49.745Z,58.85
2022-12-13T04:55:19.350Z,58.83
2022-12-13T04:57:47.869Z,58.86
2022-12-13T05:00:17.109Z,58.88
2022-12-13T05:02:45.409Z,58.93
2022-12-13T05:05:15.356Z,58.83
2022-12-13T05:07:44.051Z,58.84
2022-12-13T05:10:32.202Z,58.50
2022-12-13T05:13:03.432Z,58.52
2022-12-13T05:15:31.883Z,58.59
2022-12-13T05:18:09.966Z,58.41
2022-12-13T05:20:39.903Z,57.90
2022-12-13T05:23:08.660Z,57.92
2022-12-13T05:25:37.505Z,58.35
2022-12-13T05:28:27.165Z,58.27
2022-12-13T05:30:57.483Z,57.60
2022-12-13T05:33:26.886Z,57.45
2022-12-13T09:41:19.424Z,57.66
2022-12-13T09:43:54.628Z,57.62
2022-12-13T09:46:34.812Z,57.21
2022-12-13T09:49:25.610Z,57.43
2022-12-13T09:52:10.656Z,57.44
2022-12-13T09:54:48.229Z,57.24
2022-12-13T09:57:32.204Z,57.08
2022-12-13T10:00:04.082Z,56.83
2022-12-13T10:02:44.285Z,56.45
2022-12-13T10:05:22.702Z,56.71
2022-12-13T10:07:55.696Z,56.89
2022-12-13T10:10:24.877Z,56.76
2022-12-13T10:12:59.817Z,56.60
2022-12-13T10:15:29.546Z,56.66
2022-12-13T10:17:59.270Z,56.54
2022-12-13T10:20:29.995Z,56.64
2022-12-13T10:25:54.836Z,56.27
2022-12-13T10:28:34.737Z,56.37
2022-12-13T10:31:04.629Z,55.72
2022-12-13T10:33:34.855Z,55.66
2022-12-13T10:36:07.285Z,55.99
2022-12-13T10:38:41.985Z,55.92
2022-12-13T10:41:28.574Z,55.74
2022-12-13T10:44:22.584Z,55.01
2022-12-13T10:46:54.870Z,54.83
2022-12-13T10:49:25.976Z,55.29
2022-12-13T10:51:55.014Z,55.55
2022-12-13T10:54:29.701Z,56.03
2022-12-13T10:57:12.311Z,55.96
2022-12-13T10:59:41.910Z,55.93
2022-12-13T11:02:31.371Z,55.70
2022-12-13T11:05:03.467Z,55.30
2022-12-13T11:07:35.255Z,56.01
2022-12-13T11:10:20.108Z,56.13
2022-12-13T11:12:52.939Z,55.79
2022-12-13T11:15:26.650Z,56.15
2022-12-13T11:17:58.672Z,56.12
2022-12-13T11:20:30.075Z,56.13
2022-12-13T11:23:04.932Z,56.04
2022-12-13T11:25:41.276Z,55.95
2022-12-13T11:28:37.256Z,56.13
2022-12-13T11:31:15.739Z,56.17
2022-12-13T11:33:56.059Z,55.75
2022-12-13T11:36:36.909Z,55.76
2022-12-13T11:39:18.574Z,55.28
2022-12-13T11:41:55.332Z,54.86
2022-12-13T11:44:30.897Z,55.29
2022-12-13T11:47:02.103Z,55.55
2022-12-13T11:49:39.943Z,55.13
2022-12-13T11:52:16.364Z,55.40
2022-12-13T11:54:50.983Z,55.50
2022-12-13T11:57:31.487Z,55.53
2022-12-13T12:00:13.216Z,55.58
2022-12-13T12:02:50.781Z,55.72
2022-12-13T12:05:28.457Z,55.57
2022-12-13T12:08:31.792Z,55.80
2022-12-13T12:10:52.636Z,55.94
2022-12-13T12:13:24.815Z,55.67
2022-12-13T12:16:05.869Z,55.60
2022-12-13T12:18:37.013Z,55.47
2022-12-13T12:21:18.430Z,55.31
2022-12-13T12:23:59.708Z,55.64
2022-12-13T12:26:34.248Z,55.66
2022-12-13T12:29:21.418Z,55.79
2022-12-13T12:32:03.005Z,55.79
2022-12-13T12:34:46.518Z,55.95
2022-12-13T12:37:26.378Z,55.67
2022-12-13T12:40:08.450Z,56.14
2022-12-13T12:43:14.374Z,55.88
2022-12-13T12:46:04.348Z,55.74
2022-12-13T12:49:02.324Z,54.95
2022-12-13T12:51:42.795Z,55.36
2022-12-13T12:54:32.340Z,55.37
2022-12-13T12:57:07.622Z,55.29
2022-12-13T12:59:47.466Z,55.53
2022-12-13T13:02:23.591Z,55.17
2022-12-13T13:05:00.158Z,54.90
2022-12-13T13:07:40.086Z,55.20
2022-12-13T13:10:16.691Z,55.13
2022-12-13T13:13:11.343Z,54.97
2022-12-13T13:15:56.709Z,55.15
2022-12-13T13:18:51.322Z,55.33
2022-12-13T13:21:28.490Z,54.81
2022-12-13T13:24:14.283Z,55.19
2022-12-13T13:26:45.164Z,54.94
2022-12-13T13:29:31.343Z,55.20
2022-12-13T13:32:02.578Z,55.20
2022-12-13T13:34:36.460Z,54.96
2022-12-13T13:37:06.633Z,55.00
2022-12-13T13:39:55.819Z,55.22
2022-12-13T13:42:25.994Z,54.72
2022-12-13T13:45:23.417Z,54.97
2022-12-13T13:48:14.509Z,54.91
2022-12-13T13:51:25.892Z,54.73
2022-12-13T13:54:25.410Z,54.32
2022-12-13T13:58:00.372Z,53.95
2022-12-13T14:00:23.824Z,54.31
2022-12-13T14:03:34.262Z,55.08
2022-12-13T14:06:46.112Z,55.39
2022-12-13T14:09:57.382Z,54.85
2022-12-13T14:12:56.511Z,54.71
2022-12-13T14:15:50.057Z,54.97
2022-12-13T14:18:58.872Z,55.09
2022-12-13T14:21:35.544Z,55.34
2022-12-13T14:24:15.117Z,55.29
2022-12-13T14:27:00.678Z,54.93
2022-12-13T14:29:32.540Z,54.76
2022-12-13T14:32:03.020Z,55.43
2022-12-13T14:34:33.858Z,55.79
2022-12-13T14:37:04.763Z,55.50
2022-12-13T14:39:34.781Z,55.49
2022-12-13T14:42:23.056Z,55.26
2022-12-13T14:44:51.692Z,55.54
2022-12-13T14:47:23.352Z,55.85
2022-12-13T14:49:55.836Z,56.35
2022-12-13T14:52:27.831Z,56.54
2022-12-13T14:54:59.437Z,56.01
2022-12-13T14:57:29.811Z,55.76
2022-12-13T15:40:26.571Z,56.79
2022-12-13T15:42:55.347Z,56.67
2022-12-13T15:45:25.592Z,56.68
2022-12-13T15:47:55.291Z,56.78
2022-12-13T15:50:34.135Z,57.08
2022-12-13T15:53:04.658Z,57.48
2022-12-13T15:55:37.456Z,57.44
2022-12-13T15:58:26.636Z,57.69
2022-12-13T16:00:55.359Z,56.94
2022-12-13T16:03:26.882Z,57.20
2022-12-13T16:05:57.158Z,57.21
2022-12-13T16:08:30.214Z,55.98
2022-12-13T16:11:00.487Z,57.19
2022-12-13T16:13:31.233Z,57.57
2022-12-13T16:16:09.454Z,57.57
2022-12-13T16:18:46.920Z,56.97
2022-12-13T16:21:15.408Z,57.44
2022-12-13T16:23:48.475Z,57.74
2022-12-13T16:26:25.630Z,57.97
2022-12-13T16:28:54.412Z,57.90
2022-12-13T16:31:25.117Z,56.94
2022-12-13T16:33:53.626Z,56.62
2022-12-13T16:36:21.907Z,56.94
2022-12-13T16:38:50.759Z,57.09
2022-12-13T16:41:19.246Z,57.26
2022-12-13T16:43:56.245Z,57.23
2022-12-13T16:47:17.353Z,57.40
2022-12-13T16:49:21.295Z,57.33
2022-12-13T16:51:52.707Z,57.78
2022-12-13T16:54:22.869Z,57.50
2022-12-13T16:56:52.550Z,57.60
2022-12-13T16:59:23.785Z,57.33
2022-12-13T17:01:53.185Z,57.00
2022-12-13T17:04:23.411Z,57.32
2022-12-13T17:06:55.209Z,57.66
2022-12-13T17:09:25.569Z,57.82
2022-12-13T17:11:54.195Z,57.43
2022-12-13T17:14:24.004Z,57.43
2022-12-13T17:16:52.289Z,57.57
2022-12-13T17:19:20.750Z,57.91
2022-12-13T17:21:49.359Z,58.09
2022-12-13T17:24:17.959Z,58.20
2022-12-13T17:26:53.908Z,58.13
2022-12-13T17:29:26.012Z,58.21
2022-12-13T17:31:54.686Z,58.09
2022-12-13T17:34:23.194Z,57.93
2022-12-13T17:37:03.210Z,56.11
2022-12-13T17:43:47.342Z,56.57
2022-12-13T18:37:13.332Z,57.68
2022-12-13T18:39:43.911Z,57.63
2022-12-13T18:42:23.429Z,57.54
2022-12-13T18:44:54.672Z,57.61
2022-12-13T18:47:23.379Z,57.67
2022-12-13T18:49:54.853Z,57.74
2022-12-13T18:52:27.828Z,57.50
2022-12-13T18:54:56.413Z,57.52
2022-12-13T18:57:24.882Z,57.53
2022-12-13T18:59:54.060Z,57.81
2022-12-13T19:02:31.032Z,57.85
2022-12-13T19:05:05.811Z,57.77
2022-12-13T19:07:35.941Z,57.59
2022-12-13T19:10:05.104Z,57.84
2022-12-13T19:12:35.030Z,57.89
2022-12-13T19:15:05.173Z,57.88
2022-12-13T19:17:36.693Z,57.78
2022-12-13T19:20:06.975Z,57.64
2022-12-13T19:22:39.540Z,57.52
2022-12-13T19:25:09.135Z,57.49
2022-12-13T19:27:37.829Z,57.32
2022-12-13T19:30:07.333Z,57.48
2022-12-13T19:32:39.452Z,57.27
2022-12-13T19:35:21.816Z,57.30
2022-12-13T19:38:02.615Z,57.37
2022-12-13T19:40:45.808Z,57.27
2022-12-13T19:43:25.991Z,57.22
2022-12-13T19:46:06.163Z,57.34
2022-12-13T19:48:43.364Z,57.22
2022-12-13T19:51:32.065Z,57.28
2022-12-13T19:54:13.124Z,57.18
2022-12-13T19:56:47.522Z,57.27
2022-12-13T19:59:16.232Z,57.08
2022-12-13T20:01:50.805Z,56.95
2022-12-13T20:04:19.999Z,57.20
2022-12-13T20:06:48.734Z,57.04
2022-12-13T20:09:18.883Z,57.25
2022-12-13T20:11:47.757Z,56.97
2022-12-13T20:14:16.276Z,57.28
2022-12-13T20:16:44.859Z,57.37
2022-12-13T20:19:15.717Z,57.14
2022-12-13T20:21:52.255Z,57.41
2022-12-13T20:24:25.382Z,57.40
2022-12-13T20:26:57.320Z,57.40
2022-12-13T20:29:29.656Z,57.46
2022-12-13T20:31:58.777Z,57.57
2022-12-13T20:34:27.242Z,57.50
2022-12-13T21:37:35.407Z,57.30
2022-12-13T21:40:06.372Z,57.24
2022-12-13T21:42:35.011Z,57.20
2022-12-13T21:45:03.656Z,57.21
2022-12-13T21:47:31.889Z,57.26
2022-12-13T21:50:00.645Z,57.27
2022-12-13T21:52:29.583Z,57.21
2022-12-13T21:55:15.096Z,57.05
2022-12-13T21:58:08.201Z,56.92
2022-12-13T22:00:55.031Z,56.89
2022-12-13T22:03:25.534Z,56.94
2022-12-13T22:05:53.922Z,56.98
2022-12-13T22:08:30.286Z,56.95
2022-12-13T22:11:21.623Z,57.03
2022-12-13T22:13:54.501Z,57.11
2022-12-13T22:16:23.157Z,57.13
2022-12-13T22:18:55.150Z,57.10
2022-12-13T22:21:24.322Z,57.08
2022-12-13T22:23:54.436Z,57.08
2022-12-13T22:26:23.750Z,57.13
2022-12-13T22:28:54.798Z,57.11
2022-12-13T22:31:29.531Z,57.09
2022-12-13T22:34:03.127Z,56.87
2022-12-13T22:36:31.839Z,57.02
2022-12-13T22:39:01.737Z,57.04
2022-12-13T22:41:31.872Z,57.08
2022-12-13T22:44:07.105Z,57.12
2022-12-13T22:46:38.074Z,57.13
2022-12-13T22:49:07.232Z,57.19
2022-12-13T22:51:42.017Z,57.19
2022-12-13T22:54:29.484Z,57.17
2022-12-13T22:57:10.599Z,57.19
2022-12-13T22:59:48.138Z,57.24
2022-12-13T23:02:21.456Z,57.20
2022-12-13T23:04:50.054Z,57.15
2022-12-13T23:07:18.311Z,57.08
2022-12-13T23:09:46.693Z,57.09
2022-12-13T23:12:32.597Z,57.08
2022-12-13T23:15:02.196Z,57.06
2022-12-13T23:17:31.220Z,57.04
2022-12-13T23:19:59.542Z,56.95
2022-12-13T23:22:27.926Z,57.04
2022-12-13T23:24:56.545Z,57.19
2022-12-13T23:27:25.451Z,57.30
2022-12-13T23:29:53.570Z,57.17
2022-12-13T23:32:23.420Z,57.07
2022-12-13T23:34:52.414Z,57.01
2022-12-13T23:37:20.808Z,56.90
2022-12-13T23:39:51.470Z,57.08
2022-12-13T23:42:21.055Z,57.21
2022-12-13T23:44:49.575Z,57.33
2022-12-13T23:47:19.645Z,57.33
2022-12-13T23:49:49.401Z,57.17
2022-12-13T23:52:17.963Z,57.18
2022-12-13T23:54:46.363Z,57.23
2022-12-13T23:57:15.131Z,57.26
2022-12-13T23:59:43.720Z,57.10
